sensor_id;sensor_type;location;lat;lon;timestamp;P1;durP1;ratioP1;P2;durP2;ratioP2
13250;SDS011;6692;50.710;7.180;2023-07-31T00:00:20;445.50;;;428.77;;
13250;SDS011;6692;50.710;7.180;2023-07-31T00:02:21;411.40;;;396.23;;
13250;SDS011;6692;50.710;7.180;2023-07-31T00:04:22;403.33;;;388.53;;
13250;SDS011;6692;50.710;7.180;2023-07-31T00:06:23;406.40;;;391.27;;
13250;SDS011;6692;50.710;7.180;2023-07-31T00:08:24;390.27;;;375.97;;
13250;SDS011;6692;50.710;7.180;2023-07-31T00:10:24;381.57;;;367.70;;
13250;SDS011;6692;50.710;7.180;2023-07-31T00:12:25;446.87;;;429.90;;
13250;SDS011;6692;50.710;7.180;2023-07-31T00:14:26;418.20;;;402.73;;
13250;SDS011;6692;50.710;7.180;2023-07-31T00:16:28;445.47;;;428.87;;
13250;SDS011;6692;50.710;7.180;2023-07-31T00:18:29;429.10;;;413.17;;
13250;SDS011;6692;50.710;7.180;2023-07-31T00:20:29;397.23;;;382.73;;
13250;SDS011;6692;50.710;7.180;2023-07-31T00:22:30;444.33;;;427.43;;
13250;SDS011;6692;50.710;7.180;2023-07-31T00:24:31;457.23;;;439.93;;
13250;SDS011;6692;50.710;7.180;2023-07-31T00:26:32;457.33;;;439.77;;
13250;SDS011;6692;50.710;7.180;2023-07-31T00:28:33;422.10;;;406.50;;
13250;SDS011;6692;50.710;7.180;2023-07-31T00:30:34;433.33;;;417.13;;
13250;SDS011;6692;50.710;7.180;2023-07-31T00:32:34;391.97;;;377.57;;
13250;SDS011;6692;50.710;7.180;2023-07-31T00:34:37;401.30;;;386.57;;
13250;SDS011;6692;50.710;7.180;2023-07-31T00:36:36;443.53;;;427.03;;
13250;SDS011;6692;50.710;7.180;2023-07-31T00:38:37;413.80;;;398.60;;
13250;SDS011;6692;50.710;7.180;2023-07-31T00:40:38;440.17;;;423.63;;
13250;SDS011;6692;50.710;7.180;2023-07-31T00:42:39;424.63;;;408.77;;
13250;SDS011;6692;50.710;7.180;2023-07-31T00:44:40;429.73;;;413.57;;
13250;SDS011;6692;50.710;7.180;2023-07-31T00:46:41;438.03;;;421.80;;
13250;SDS011;6692;50.710;7.180;2023-07-31T00:48:41;416.93;;;401.53;;
13250;SDS011;6692;50.710;7.180;2023-07-31T00:50:43;388.67;;;374.47;;
13250;SDS011;6692;50.710;7.180;2023-07-31T00:52:43;387.50;;;373.30;;
13250;SDS011;6692;50.710;7.180;2023-07-31T00:54:44;407.00;;;391.77;;
13250;SDS011;6692;50.710;7.180;2023-07-31T00:56:45;413.23;;;397.77;;
13250;SDS011;6692;50.710;7.180;2023-07-31T00:58:46;422.43;;;406.50;;
13250;SDS011;6692;50.710;7.180;2023-07-31T01:00:46;380.77;;;366.67;;
13250;SDS011;6692;50.710;7.180;2023-07-31T01:02:48;383.87;;;370.00;;
13250;SDS011;6692;50.710;7.180;2023-07-31T01:04:49;366.07;;;352.93;;
13250;SDS011;6692;50.710;7.180;2023-07-31T01:06:59;341.57;;;329.27;;
13250;SDS011;6692;50.710;7.180;2023-07-31T01:09:00;345.27;;;333.07;;
13250;SDS011;6692;50.710;7.180;2023-07-31T01:11:00;364.20;;;351.23;;
13250;SDS011;6692;50.710;7.180;2023-07-31T01:13:00;362.17;;;349.30;;
13250;SDS011;6692;50.710;7.180;2023-07-31T01:15:02;355.70;;;342.97;;
13250;SDS011;6692;50.710;7.180;2023-07-31T01:17:04;311.60;;;300.67;;
13250;SDS011;6692;50.710;7.180;2023-07-31T01:19:06;322.17;;;310.77;;
13250;SDS011;6692;50.710;7.180;2023-07-31T01:21:16;321.57;;;310.30;;
13250;SDS011;6692;50.710;7.180;2023-07-31T01:23:23;301.43;;;290.93;;
13250;SDS011;6692;50.710;7.180;2023-07-31T01:25:35;287.00;;;276.93;;
13250;SDS011;6692;50.710;7.180;2023-07-31T01:27:51;313.07;;;302.20;;
13250;SDS011;6692;50.710;7.180;2023-07-31T01:29:53;293.13;;;282.87;;
13250;SDS011;6692;50.710;7.180;2023-07-31T01:31:55;287.53;;;277.53;;
13250;SDS011;6692;50.710;7.180;2023-07-31T01:33:56;284.30;;;274.40;;
13250;SDS011;6692;50.710;7.180;2023-07-31T01:35:56;265.37;;;256.20;;
13250;SDS011;6692;50.710;7.180;2023-07-31T01:37:57;216.43;;;208.70;;
13250;SDS011;6692;50.710;7.180;2023-07-31T01:39:57;204.30;;;196.90;;
13250;SDS011;6692;50.710;7.180;2023-07-31T01:41:59;180.87;;;174.33;;
13250;SDS011;6692;50.710;7.180;2023-07-31T01:44:00;159.13;;;153.30;;
13250;SDS011;6692;50.710;7.180;2023-07-31T01:46:00;147.50;;;142.10;;
13250;SDS011;6692;50.710;7.180;2023-07-31T01:48:01;150.53;;;145.00;;
13250;SDS011;6692;50.710;7.180;2023-07-31T01:50:03;154.50;;;148.90;;
13250;SDS011;6692;50.710;7.180;2023-07-31T01:52:05;149.77;;;144.27;;
13250;SDS011;6692;50.710;7.180;2023-07-31T01:54:06;147.00;;;141.53;;
13250;SDS011;6692;50.710;7.180;2023-07-31T01:56:07;137.87;;;132.67;;
13250;SDS011;6692;50.710;7.180;2023-07-31T01:58:08;126.17;;;121.57;;
13250;SDS011;6692;50.710;7.180;2023-07-31T02:00:08;135.87;;;130.77;;
13250;SDS011;6692;50.710;7.180;2023-07-31T02:02:10;128.10;;;123.30;;
13250;SDS011;6692;50.710;7.180;2023-07-31T02:04:11;121.90;;;117.20;;
13250;SDS011;6692;50.710;7.180;2023-07-31T02:06:12;127.40;;;122.73;;
13250;SDS011;6692;50.710;7.180;2023-07-31T02:08:13;115.07;;;110.87;;
13250;SDS011;6692;50.710;7.180;2023-07-31T02:10:13;1999.90;;;999.90;;
13250;SDS011;6692;50.710;7.180;2023-07-31T02:12:14;1999.90;;;999.90;;
13250;SDS011;6692;50.710;7.180;2023-07-31T02:14:15;1999.90;;;999.90;;
13250;SDS011;6692;50.710;7.180;2023-07-31T02:16:16;140.27;;;134.97;;
13250;SDS011;6692;50.710;7.180;2023-07-31T02:18:17;162.77;;;156.77;;
13250;SDS011;6692;50.710;7.180;2023-07-31T02:20:18;136.23;;;131.20;;
13250;SDS011;6692;50.710;7.180;2023-07-31T02:22:19;148.67;;;143.07;;
13250;SDS011;6692;50.710;7.180;2023-07-31T02:24:20;1999.90;;;999.90;;
13250;SDS011;6692;50.710;7.180;2023-07-31T02:26:21;153.83;;;148.23;;
13250;SDS011;6692;50.710;7.180;2023-07-31T02:28:22;141.33;;;136.13;;
13250;SDS011;6692;50.710;7.180;2023-07-31T02:30:22;168.70;;;162.40;;
13250;SDS011;6692;50.710;7.180;2023-07-31T02:32:23;135.97;;;131.07;;
13250;SDS011;6692;50.710;7.180;2023-07-31T02:34:24;1999.90;;;999.90;;
13250;SDS011;6692;50.710;7.180;2023-07-31T02:36:25;127.63;;;122.87;;
13250;SDS011;6692;50.710;7.180;2023-07-31T02:38:26;152.10;;;146.53;;
13250;SDS011;6692;50.710;7.180;2023-07-31T02:40:27;134.40;;;129.50;;
13250;SDS011;6692;50.710;7.180;2023-07-31T02:42:27;167.40;;;161.10;;
13250;SDS011;6692;50.710;7.180;2023-07-31T02:44:28;186.23;;;179.63;;
13250;SDS011;6692;50.710;7.180;2023-07-31T02:46:29;189.40;;;182.63;;
13250;SDS011;6692;50.710;7.180;2023-07-31T02:48:30;162.70;;;156.73;;
13250;SDS011;6692;50.710;7.180;2023-07-31T02:50:30;176.90;;;170.60;;
13250;SDS011;6692;50.710;7.180;2023-07-31T02:52:31;162.20;;;156.30;;
13250;SDS011;6692;50.710;7.180;2023-07-31T02:54:32;206.77;;;199.37;;
13250;SDS011;6692;50.710;7.180;2023-07-31T02:56:33;192.63;;;185.50;;
13250;SDS011;6692;50.710;7.180;2023-07-31T02:58:33;151.40;;;145.93;;
13250;SDS011;6692;50.710;7.180;2023-07-31T03:00:34;169.93;;;163.80;;
13250;SDS011;6692;50.710;7.180;2023-07-31T03:02:35;224.47;;;216.37;;
13250;SDS011;6692;50.710;7.180;2023-07-31T03:04:35;170.83;;;164.57;;
13250;SDS011;6692;50.710;7.180;2023-07-31T03:06:36;216.57;;;208.83;;
13250;SDS011;6692;50.710;7.180;2023-07-31T03:08:38;242.20;;;233.70;;
13250;SDS011;6692;50.710;7.180;2023-07-31T03:10:38;226.83;;;218.67;;
13250;SDS011;6692;50.710;7.180;2023-07-31T03:12:40;201.43;;;194.17;;
13250;SDS011;6692;50.710;7.180;2023-07-31T03:14:40;209.10;;;201.67;;
13250;SDS011;6692;50.710;7.180;2023-07-31T03:16:41;219.80;;;211.97;;
13250;SDS011;6692;50.710;7.180;2023-07-31T03:18:42;177.03;;;170.63;;
13250;SDS011;6692;50.710;7.180;2023-07-31T03:20:43;180.67;;;174.20;;
13250;SDS011;6692;50.710;7.180;2023-07-31T03:22:43;175.73;;;169.37;;
13250;SDS011;6692;50.710;7.180;2023-07-31T03:24:44;159.10;;;153.30;;
13250;SDS011;6692;50.710;7.180;2023-07-31T03:26:45;183.47;;;176.77;;
13250;SDS011;6692;50.710;7.180;2023-07-31T03:28:45;211.47;;;203.93;;
13250;SDS011;6692;50.710;7.180;2023-07-31T03:30:46;189.00;;;182.10;;
13250;SDS011;6692;50.710;7.180;2023-07-31T03:32:47;193.90;;;186.90;;
13250;SDS011;6692;50.710;7.180;2023-07-31T03:34:48;151.07;;;145.60;;
13250;SDS011;6692;50.710;7.180;2023-07-31T03:36:48;134.30;;;129.33;;
13250;SDS011;6692;50.710;7.180;2023-07-31T03:38:50;140.13;;;135.03;;
13250;SDS011;6692;50.710;7.180;2023-07-31T03:40:50;178.77;;;172.27;;
13250;SDS011;6692;50.710;7.180;2023-07-31T03:42:51;200.97;;;193.77;;
13250;SDS011;6692;50.710;7.180;2023-07-31T03:44:53;158.60;;;152.80;;
13250;SDS011;6692;50.710;7.180;2023-07-31T03:46:53;167.40;;;161.17;;
13250;SDS011;6692;50.710;7.180;2023-07-31T03:48:54;143.90;;;138.67;;
13250;SDS011;6692;50.710;7.180;2023-07-31T03:50:56;115.93;;;111.70;;
13250;SDS011;6692;50.710;7.180;2023-07-31T03:52:56;120.73;;;116.27;;
13250;SDS011;6692;50.710;7.180;2023-07-31T03:54:57;103.10;;;99.33;;
13250;SDS011;6692;50.710;7.180;2023-07-31T03:56:58;125.47;;;120.90;;
13250;SDS011;6692;50.710;7.180;2023-07-31T03:58:58;125.67;;;120.97;;
13250;SDS011;6692;50.710;7.180;2023-07-31T04:00:59;96.43;;;92.67;;
13250;SDS011;6692;50.710;7.180;2023-07-31T04:03:00;121.50;;;117.03;;
13250;SDS011;6692;50.710;7.180;2023-07-31T04:05:01;102.00;;;98.23;;
13250;SDS011;6692;50.710;7.180;2023-07-31T04:07:01;1365.77;;;697.87;;
13250;SDS011;6692;50.710;7.180;2023-07-31T04:09:02;109.63;;;105.30;;
13250;SDS011;6692;50.710;7.180;2023-07-31T04:11:03;146.33;;;140.83;;
13250;SDS011;6692;50.710;7.180;2023-07-31T04:13:04;146.33;;;140.90;;
13250;SDS011;6692;50.710;7.180;2023-07-31T04:15:06;128.23;;;123.50;;
13250;SDS011;6692;50.710;7.180;2023-07-31T04:17:07;104.87;;;100.87;;
13250;SDS011;6692;50.710;7.180;2023-07-31T04:19:07;117.80;;;113.17;;
13250;SDS011;6692;50.710;7.180;2023-07-31T04:21:08;119.07;;;114.50;;
13250;SDS011;6692;50.710;7.180;2023-07-31T04:23:09;113.87;;;109.67;;
13250;SDS011;6692;50.710;7.180;2023-07-31T04:25:10;113.93;;;109.63;;
13250;SDS011;6692;50.710;7.180;2023-07-31T04:27:10;1999.90;;;999.90;;
13250;SDS011;6692;50.710;7.180;2023-07-31T04:29:11;1999.90;;;999.90;;
13250;SDS011;6692;50.710;7.180;2023-07-31T04:31:12;1999.90;;;999.90;;
13250;SDS011;6692;50.710;7.180;2023-07-31T04:33:12;94.00;;;90.53;;
13250;SDS011;6692;50.710;7.180;2023-07-31T04:35:13;95.00;;;91.40;;
13250;SDS011;6692;50.710;7.180;2023-07-31T04:37:14;98.33;;;94.73;;
13250;SDS011;6692;50.710;7.180;2023-07-31T04:39:15;98.33;;;94.70;;
13250;SDS011;6692;50.710;7.180;2023-07-31T04:41:16;733.13;;;397.37;;
13250;SDS011;6692;50.710;7.180;2023-07-31T04:43:16;1999.90;;;999.90;;
13250;SDS011;6692;50.710;7.180;2023-07-31T04:45:18;96.97;;;93.37;;
13250;SDS011;6692;50.710;7.180;2023-07-31T04:47:19;735.53;;;399.63;;
13250;SDS011;6692;50.710;7.180;2023-07-31T04:49:20;128.03;;;123.37;;
13250;SDS011;6692;50.710;7.180;2023-07-31T04:51:21;106.17;;;102.27;;
13250;SDS011;6692;50.710;7.180;2023-07-31T04:53:22;124.17;;;119.27;;
13250;SDS011;6692;50.710;7.180;2023-07-31T04:55:23;107.37;;;103.23;;
13250;SDS011;6692;50.710;7.180;2023-07-31T04:57:24;107.03;;;103.03;;
13250;SDS011;6692;50.710;7.180;2023-07-31T04:59:24;104.90;;;100.93;;
13250;SDS011;6692;50.710;7.180;2023-07-31T05:01:25;104.67;;;100.70;;
13250;SDS011;6692;50.710;7.180;2023-07-31T05:03:26;111.07;;;106.97;;
13250;SDS011;6692;50.710;7.180;2023-07-31T05:05:27;115.80;;;111.60;;
13250;SDS011;6692;50.710;7.180;2023-07-31T05:07:27;1999.90;;;999.90;;
13250;SDS011;6692;50.710;7.180;2023-07-31T05:09:28;1999.90;;;999.90;;
13250;SDS011;6692;50.710;7.180;2023-07-31T05:11:29;1999.90;;;999.90;;
13250;SDS011;6692;50.710;7.180;2023-07-31T05:13:29;1999.90;;;999.90;;
13250;SDS011;6692;50.710;7.180;2023-07-31T05:15:30;1999.90;;;999.90;;
13250;SDS011;6692;50.710;7.180;2023-07-31T05:17:31;1999.90;;;999.90;;
13250;SDS011;6692;50.710;7.180;2023-07-31T05:19:31;1999.90;;;999.90;;
13250;SDS011;6692;50.710;7.180;2023-07-31T05:21:32;1999.90;;;999.90;;
13250;SDS011;6692;50.710;7.180;2023-07-31T05:23:33;1999.90;;;999.90;;
13250;SDS011;6692;50.710;7.180;2023-07-31T05:25:33;1999.90;;;999.90;;
13250;SDS011;6692;50.710;7.180;2023-07-31T05:27:34;1999.90;;;999.90;;
13250;SDS011;6692;50.710;7.180;2023-07-31T05:29:35;1999.90;;;999.90;;
13250;SDS011;6692;50.710;7.180;2023-07-31T05:31:36;1999.90;;;999.90;;
13250;SDS011;6692;50.710;7.180;2023-07-31T05:33:36;1999.90;;;999.90;;
13250;SDS011;6692;50.710;7.180;2023-07-31T05:35:37;1999.90;;;999.90;;
13250;SDS011;6692;50.710;7.180;2023-07-31T05:37:38;1999.90;;;999.90;;
13250;SDS011;6692;50.710;7.180;2023-07-31T05:39:39;1999.90;;;999.90;;
13250;SDS011;6692;50.710;7.180;2023-07-31T05:41:40;1999.90;;;999.90;;
13250;SDS011;6692;50.710;7.180;2023-07-31T05:43:41;1999.90;;;999.90;;
13250;SDS011;6692;50.710;7.180;2023-07-31T05:45:42;1999.90;;;999.90;;
13250;SDS011;6692;50.710;7.180;2023-07-31T05:47:44;1999.90;;;999.90;;
13250;SDS011;6692;50.710;7.180;2023-07-31T05:49:44;1999.90;;;999.90;;
13250;SDS011;6692;50.710;7.180;2023-07-31T05:51:46;1999.90;;;999.90;;
13250;SDS011;6692;50.710;7.180;2023-07-31T05:53:46;1999.90;;;999.90;;
13250;SDS011;6692;50.710;7.180;2023-07-31T05:55:47;1999.90;;;999.90;;
13250;SDS011;6692;50.710;7.180;2023-07-31T05:57:48;1999.90;;;999.90;;
13250;SDS011;6692;50.710;7.180;2023-07-31T05:59:48;1999.90;;;999.90;;
13250;SDS011;6692;50.710;7.180;2023-07-31T06:01:49;1999.90;;;999.90;;
13250;SDS011;6692;50.710;7.180;2023-07-31T06:03:51;1999.90;;;999.90;;
13250;SDS011;6692;50.710;7.180;2023-07-31T06:05:52;1999.90;;;999.90;;
13250;SDS011;6692;50.710;7.180;2023-07-31T06:07:53;1999.90;;;999.90;;
13250;SDS011;6692;50.710;7.180;2023-07-31T06:09:54;1999.90;;;999.90;;
13250;SDS011;6692;50.710;7.180;2023-07-31T06:11:55;1999.90;;;999.90;;
13250;SDS011;6692;50.710;7.180;2023-07-31T06:13:56;1999.90;;;999.90;;
13250;SDS011;6692;50.710;7.180;2023-07-31T06:15:56;1999.90;;;999.90;;
13250;SDS011;6692;50.710;7.180;2023-07-31T06:17:57;1999.90;;;999.90;;
13250;SDS011;6692;50.710;7.180;2023-07-31T06:19:58;1999.90;;;999.90;;
13250;SDS011;6692;50.710;7.180;2023-07-31T06:21:58;1999.90;;;999.90;;
13250;SDS011;6692;50.710;7.180;2023-07-31T06:23:59;1999.90;;;999.90;;
13250;SDS011;6692;50.710;7.180;2023-07-31T06:26:00;1999.90;;;999.90;;
13250;SDS011;6692;50.710;7.180;2023-07-31T06:28:00;1999.90;;;999.90;;
13250;SDS011;6692;50.710;7.180;2023-07-31T06:30:02;1999.90;;;999.90;;
13250;SDS011;6692;50.710;7.180;2023-07-31T06:32:03;1999.90;;;999.90;;
13250;SDS011;6692;50.710;7.180;2023-07-31T06:34:04;1999.90;;;999.90;;
13250;SDS011;6692;50.710;7.180;2023-07-31T06:36:05;1999.90;;;999.90;;
13250;SDS011;6692;50.710;7.180;2023-07-31T06:38:06;1999.90;;;999.90;;
13250;SDS011;6692;50.710;7.180;2023-07-31T06:40:07;1999.90;;;999.90;;
13250;SDS011;6692;50.710;7.180;2023-07-31T06:42:10;1999.90;;;999.90;;
13250;SDS011;6692;50.710;7.180;2023-07-31T06:44:11;1999.90;;;999.90;;
13250;SDS011;6692;50.710;7.180;2023-07-31T06:46:12;1999.90;;;999.90;;
13250;SDS011;6692;50.710;7.180;2023-07-31T06:48:12;1999.90;;;999.90;;
13250;SDS011;6692;50.710;7.180;2023-07-31T06:50:13;1999.90;;;999.90;;
13250;SDS011;6692;50.710;7.180;2023-07-31T06:52:14;1999.90;;;999.90;;
13250;SDS011;6692;50.710;7.180;2023-07-31T06:54:14;1999.90;;;999.90;;
13250;SDS011;6692;50.710;7.180;2023-07-31T06:56:15;1999.90;;;999.90;;
13250;SDS011;6692;50.710;7.180;2023-07-31T06:58:16;1999.90;;;999.90;;
13250;SDS011;6692;50.710;7.180;2023-07-31T07:00:17;1999.90;;;999.90;;
13250;SDS011;6692;50.710;7.180;2023-07-31T07:02:17;1999.90;;;999.90;;
13250;SDS011;6692;50.710;7.180;2023-07-31T07:04:18;1999.90;;;999.90;;
13250;SDS011;6692;50.710;7.180;2023-07-31T07:06:19;1999.90;;;999.90;;
13250;SDS011;6692;50.710;7.180;2023-07-31T07:08:21;1999.90;;;999.90;;
13250;SDS011;6692;50.710;7.180;2023-07-31T07:10:21;1999.90;;;999.90;;
13250;SDS011;6692;50.710;7.180;2023-07-31T07:12:22;1999.90;;;999.90;;
13250;SDS011;6692;50.710;7.180;2023-07-31T07:14:23;1999.90;;;999.90;;
13250;SDS011;6692;50.710;7.180;2023-07-31T07:16:24;1999.90;;;999.90;;
13250;SDS011;6692;50.710;7.180;2023-07-31T07:18:25;1999.90;;;999.90;;
13250;SDS011;6692;50.710;7.180;2023-07-31T07:20:26;1999.90;;;999.90;;
13250;SDS011;6692;50.710;7.180;2023-07-31T07:22:27;1999.90;;;999.90;;
13250;SDS011;6692;50.710;7.180;2023-07-31T07:24:28;1999.90;;;999.90;;
13250;SDS011;6692;50.710;7.180;2023-07-31T07:26:28;1999.90;;;999.90;;
13250;SDS011;6692;50.710;7.180;2023-07-31T07:28:29;1999.90;;;999.90;;
13250;SDS011;6692;50.710;7.180;2023-07-31T07:30:30;1999.90;;;999.90;;
13250;SDS011;6692;50.710;7.180;2023-07-31T07:32:30;1999.90;;;999.90;;
13250;SDS011;6692;50.710;7.180;2023-07-31T07:34:31;1999.90;;;999.90;;
13250;SDS011;6692;50.710;7.180;2023-07-31T07:36:32;1999.90;;;999.90;;
13250;SDS011;6692;50.710;7.180;2023-07-31T07:38:33;1999.90;;;999.90;;
13250;SDS011;6692;50.710;7.180;2023-07-31T07:40:38;1999.90;;;999.90;;
13250;SDS011;6692;50.710;7.180;2023-07-31T07:42:35;1999.90;;;999.90;;
13250;SDS011;6692;50.710;7.180;2023-07-31T07:44:35;1999.90;;;999.90;;
13250;SDS011;6692;50.710;7.180;2023-07-31T07:46:36;1999.90;;;999.90;;
13250;SDS011;6692;50.710;7.180;2023-07-31T07:48:37;1999.90;;;999.90;;
13250;SDS011;6692;50.710;7.180;2023-07-31T07:50:38;1999.90;;;999.90;;
13250;SDS011;6692;50.710;7.180;2023-07-31T07:52:39;1999.90;;;999.90;;
13250;SDS011;6692;50.710;7.180;2023-07-31T07:54:40;1999.90;;;999.90;;
13250;SDS011;6692;50.710;7.180;2023-07-31T07:56:40;1999.90;;;999.90;;
13250;SDS011;6692;50.710;7.180;2023-07-31T07:58:41;1999.90;;;999.90;;
13250;SDS011;6692;50.710;7.180;2023-07-31T08:00:46;1999.90;;;999.90;;
13250;SDS011;6692;50.710;7.180;2023-07-31T08:02:43;1999.90;;;999.90;;
13250;SDS011;6692;50.710;7.180;2023-07-31T08:04:44;1999.90;;;999.90;;
13250;SDS011;6692;50.710;7.180;2023-07-31T08:06:46;1999.90;;;999.90;;
13250;SDS011;6692;50.710;7.180;2023-07-31T08:08:46;1999.90;;;999.90;;
13250;SDS011;6692;50.710;7.180;2023-07-31T08:10:47;1999.90;;;999.90;;
13250;SDS011;6692;50.710;7.180;2023-07-31T08:12:48;1999.90;;;999.90;;
13250;SDS011;6692;50.710;7.180;2023-07-31T08:14:48;1999.90;;;999.90;;
13250;SDS011;6692;50.710;7.180;2023-07-31T08:16:50;1999.90;;;999.90;;
13250;SDS011;6692;50.710;7.180;2023-07-31T08:18:51;1999.90;;;999.90;;
13250;SDS011;6692;50.710;7.180;2023-07-31T08:20:52;1999.90;;;999.90;;
13250;SDS011;6692;50.710;7.180;2023-07-31T08:22:52;1999.90;;;999.90;;
13250;SDS011;6692;50.710;7.180;2023-07-31T08:24:53;1999.90;;;999.90;;
13250;SDS011;6692;50.710;7.180;2023-07-31T08:26:54;1999.90;;;999.90;;
13250;SDS011;6692;50.710;7.180;2023-07-31T08:28:54;1999.90;;;999.90;;
13250;SDS011;6692;50.710;7.180;2023-07-31T08:30:56;1999.90;;;999.90;;
13250;SDS011;6692;50.710;7.180;2023-07-31T08:32:57;1999.90;;;999.90;;
13250;SDS011;6692;50.710;7.180;2023-07-31T08:34:57;1999.90;;;999.90;;
13250;SDS011;6692;50.710;7.180;2023-07-31T08:36:58;1999.90;;;999.90;;
13250;SDS011;6692;50.710;7.180;2023-07-31T08:38:59;1999.90;;;999.90;;
13250;SDS011;6692;50.710;7.180;2023-07-31T08:41:00;1999.90;;;999.90;;
13250;SDS011;6692;50.710;7.180;2023-07-31T08:43:01;1999.90;;;999.90;;
13250;SDS011;6692;50.710;7.180;2023-07-31T08:45:02;1999.90;;;999.90;;
13250;SDS011;6692;50.710;7.180;2023-07-31T08:47:03;1999.90;;;999.90;;
13250;SDS011;6692;50.710;7.180;2023-07-31T08:49:05;1999.90;;;999.90;;
13250;SDS011;6692;50.710;7.180;2023-07-31T08:51:05;1999.90;;;999.90;;
13250;SDS011;6692;50.710;7.180;2023-07-31T08:53:06;1999.90;;;999.90;;
13250;SDS011;6692;50.710;7.180;2023-07-31T08:55:08;1999.90;;;999.90;;
13250;SDS011;6692;50.710;7.180;2023-07-31T08:57:08;1999.90;;;999.90;;
13250;SDS011;6692;50.710;7.180;2023-07-31T08:59:09;1999.90;;;999.90;;
13250;SDS011;6692;50.710;7.180;2023-07-31T09:01:10;1999.90;;;999.90;;
13250;SDS011;6692;50.710;7.180;2023-07-31T09:03:14;1999.90;;;999.90;;
13250;SDS011;6692;50.710;7.180;2023-07-31T09:05:14;1999.90;;;999.90;;
13250;SDS011;6692;50.710;7.180;2023-07-31T09:07:15;1999.90;;;999.90;;
13250;SDS011;6692;50.710;7.180;2023-07-31T09:09:16;1999.90;;;999.90;;
13250;SDS011;6692;50.710;7.180;2023-07-31T09:11:17;1999.90;;;999.90;;
13250;SDS011;6692;50.710;7.180;2023-07-31T09:13:17;1999.90;;;999.90;;
13250;SDS011;6692;50.710;7.180;2023-07-31T09:15:18;1999.90;;;999.90;;
13250;SDS011;6692;50.710;7.180;2023-07-31T09:19:29;1999.90;;;999.90;;
13250;SDS011;6692;50.710;7.180;2023-07-31T09:21:29;1999.90;;;999.90;;
13250;SDS011;6692;50.710;7.180;2023-07-31T09:25:43;1999.90;;;999.90;;
13250;SDS011;6692;50.710;7.180;2023-07-31T09:27:45;1999.90;;;999.90;;
13250;SDS011;6692;50.710;7.180;2023-07-31T09:29:58;1999.90;;;999.90;;
13250;SDS011;6692;50.710;7.180;2023-07-31T09:31:59;1999.90;;;999.90;;
13250;SDS011;6692;50.710;7.180;2023-07-31T09:33:59;1999.90;;;999.90;;
13250;SDS011;6692;50.710;7.180;2023-07-31T09:36:00;1999.90;;;999.90;;
13250;SDS011;6692;50.710;7.180;2023-07-31T09:38:03;1999.90;;;999.90;;
13250;SDS011;6692;50.710;7.180;2023-07-31T09:40:04;1999.90;;;999.90;;
13250;SDS011;6692;50.710;7.180;2023-07-31T09:42:06;1999.90;;;999.90;;
13250;SDS011;6692;50.710;7.180;2023-07-31T09:44:07;1999.90;;;999.90;;
13250;SDS011;6692;50.710;7.180;2023-07-31T09:46:12;1999.90;;;999.90;;
13250;SDS011;6692;50.710;7.180;2023-07-31T09:48:09;1999.90;;;999.90;;
13250;SDS011;6692;50.710;7.180;2023-07-31T09:50:09;1999.90;;;999.90;;
13250;SDS011;6692;50.710;7.180;2023-07-31T09:52:11;1999.90;;;999.90;;
13250;SDS011;6692;50.710;7.180;2023-07-31T09:54:13;1999.90;;;999.90;;
13250;SDS011;6692;50.710;7.180;2023-07-31T09:56:13;1999.90;;;999.90;;
13250;SDS011;6692;50.710;7.180;2023-07-31T09:58:13;1999.90;;;999.90;;
13250;SDS011;6692;50.710;7.180;2023-07-31T10:00:15;1999.90;;;999.90;;
13250;SDS011;6692;50.710;7.180;2023-07-31T10:02:17;1999.90;;;999.90;;
13250;SDS011;6692;50.710;7.180;2023-07-31T10:04:16;1999.90;;;999.90;;
13250;SDS011;6692;50.710;7.180;2023-07-31T10:06:17;1999.90;;;999.90;;
13250;SDS011;6692;50.710;7.180;2023-07-31T10:08:18;1999.90;;;999.90;;
13250;SDS011;6692;50.710;7.180;2023-07-31T10:10:20;1999.90;;;999.90;;
13250;SDS011;6692;50.710;7.180;2023-07-31T10:12:20;1999.90;;;999.90;;
13250;SDS011;6692;50.710;7.180;2023-07-31T10:14:21;1999.90;;;999.90;;
13250;SDS011;6692;50.710;7.180;2023-07-31T10:16:22;1999.90;;;999.90;;
13250;SDS011;6692;50.710;7.180;2023-07-31T10:18:23;1999.90;;;999.90;;
13250;SDS011;6692;50.710;7.180;2023-07-31T10:20:24;1999.90;;;999.90;;
13250;SDS011;6692;50.710;7.180;2023-07-31T10:22:25;1999.90;;;999.90;;
13250;SDS011;6692;50.710;7.180;2023-07-31T10:24:26;1999.90;;;999.90;;
13250;SDS011;6692;50.710;7.180;2023-07-31T10:26:26;1999.90;;;999.90;;
13250;SDS011;6692;50.710;7.180;2023-07-31T10:28:27;1999.90;;;999.90;;
13250;SDS011;6692;50.710;7.180;2023-07-31T10:30:29;1999.90;;;999.90;;
13250;SDS011;6692;50.710;7.180;2023-07-31T10:32:29;1999.90;;;999.90;;
13250;SDS011;6692;50.710;7.180;2023-07-31T10:34:29;1999.90;;;999.90;;
13250;SDS011;6692;50.710;7.180;2023-07-31T10:36:30;1999.90;;;999.90;;
13250;SDS011;6692;50.710;7.180;2023-07-31T10:38:31;1999.90;;;999.90;;
13250;SDS011;6692;50.710;7.180;2023-07-31T10:40:32;1999.90;;;999.90;;
13250;SDS011;6692;50.710;7.180;2023-07-31T10:42:34;1999.90;;;999.90;;
13250;SDS011;6692;50.710;7.180;2023-07-31T10:44:34;1999.90;;;999.90;;
13250;SDS011;6692;50.710;7.180;2023-07-31T10:46:36;1999.90;;;999.90;;
13250;SDS011;6692;50.710;7.180;2023-07-31T10:48:37;1999.90;;;999.90;;
13250;SDS011;6692;50.710;7.180;2023-07-31T10:50:38;1999.90;;;999.90;;
13250;SDS011;6692;50.710;7.180;2023-07-31T10:52:38;1999.90;;;999.90;;
13250;SDS011;6692;50.710;7.180;2023-07-31T10:54:39;1999.90;;;999.90;;
13250;SDS011;6692;50.710;7.180;2023-07-31T10:56:39;1999.90;;;999.90;;
13250;SDS011;6692;50.710;7.180;2023-07-31T10:58:41;1999.90;;;999.90;;
13250;SDS011;6692;50.710;7.180;2023-07-31T11:00:42;1999.90;;;999.90;;
13250;SDS011;6692;50.710;7.180;2023-07-31T11:02:42;1999.90;;;999.90;;
13250;SDS011;6692;50.710;7.180;2023-07-31T11:04:44;1999.90;;;999.90;;
13250;SDS011;6692;50.710;7.180;2023-07-31T11:06:54;1999.90;;;999.90;;
13250;SDS011;6692;50.710;7.180;2023-07-31T11:08:47;1999.90;;;999.90;;
13250;SDS011;6692;50.710;7.180;2023-07-31T11:10:47;1999.90;;;999.90;;
13250;SDS011;6692;50.710;7.180;2023-07-31T11:12:47;1999.90;;;999.90;;
13250;SDS011;6692;50.710;7.180;2023-07-31T11:14:54;1999.90;;;999.90;;
13250;SDS011;6692;50.710;7.180;2023-07-31T11:16:53;1999.90;;;999.90;;
13250;SDS011;6692;50.710;7.180;2023-07-31T11:18:54;1999.90;;;999.90;;
13250;SDS011;6692;50.710;7.180;2023-07-31T11:20:55;1999.90;;;999.90;;
13250;SDS011;6692;50.710;7.180;2023-07-31T11:22:58;1999.90;;;999.90;;
13250;SDS011;6692;50.710;7.180;2023-07-31T11:24:56;1999.90;;;999.90;;
13250;SDS011;6692;50.710;7.180;2023-07-31T11:26:58;1999.90;;;999.90;;
13250;SDS011;6692;50.710;7.180;2023-07-31T11:28:58;1999.90;;;999.90;;
13250;SDS011;6692;50.710;7.180;2023-07-31T11:30:59;1999.90;;;999.90;;
13250;SDS011;6692;50.710;7.180;2023-07-31T11:33:02;1999.90;;;999.90;;
13250;SDS011;6692;50.710;7.180;2023-07-31T11:35:02;1429.57;;;759.53;;